sensor_id;sensor_type;location;lat;lon;timestamp;pressure;altitude;pressure_sealevel;temperature;humidity
22283;BME280;11310;51.528;21.204;2024-01-16T00:01:14;97959.53;;;-0.94;98.25
22283;BME280;11310;51.528;21.204;2024-01-16T00:03:43;97972.38;;;-0.94;99.69
22283;BME280;11310;51.528;21.204;2024-01-16T00:06:13;97974.06;;;-0.93;100.00
22283;BME280;11310;51.528;21.204;2024-01-16T00:08:44;97982.59;;;-0.92;99.12
22283;BME280;11310;51.528;21.204;2024-01-16T00:11:12;97978.31;;;-0.92;99.91
22283;BME280;11310;51.528;21.204;2024-01-16T00:13:40;97975.72;;;-0.92;99.73
22283;BME280;11310;51.528;21.204;2024-01-16T00:16:09;97988.56;;;-0.90;100.00
22283;BME280;11310;51.528;21.204;2024-01-16T00:18:40;97997.03;;;-0.88;100.00
22283;BME280;11310;51.528;21.204;2024-01-16T00:21:08;97987.75;;;-0.92;100.00
22283;BME280;11310;51.528;21.204;2024-01-16T00:23:40;97994.50;;;-0.90;100.00
22283;BME280;11310;51.528;21.204;2024-01-16T00:26:19;97993.53;;;-0.86;100.00
22283;BME280;11310;51.528;21.204;2024-01-16T00:28:47;98000.56;;;-0.91;99.24
22283;BME280;11310;51.528;21.204;2024-01-16T00:31:19;97992.66;;;-0.85;98.46
22283;BME280;11310;51.528;21.204;2024-01-16T00:33:51;98019.94;;;-0.81;100.00
22283;BME280;11310;51.528;21.204;2024-01-16T00:36:19;98020.78;;;-0.80;99.35
22283;BME280;11310;51.528;21.204;2024-01-16T00:38:47;98023.38;;;-0.80;100.00
22283;BME280;11310;51.528;21.204;2024-01-16T00:41:20;98026.88;;;-0.83;100.00
22283;BME280;11310;51.528;21.204;2024-01-16T00:43:49;98044.81;;;-0.80;99.73
22283;BME280;11310;51.528;21.204;2024-01-16T00:46:17;98054.25;;;-0.80;99.65
22283;BME280;11310;51.528;21.204;2024-01-16T00:48:55;98056.78;;;-0.79;100.00
22283;BME280;11310;51.528;21.204;2024-01-16T00:51:23;98067.97;;;-0.80;99.25
22283;BME280;11310;51.528;21.204;2024-01-16T00:53:53;98070.59;;;-0.81;100.00
22283;BME280;11310;51.528;21.204;2024-01-16T00:56:23;98077.50;;;-0.83;100.00
22283;BME280;11310;51.528;21.204;2024-01-16T00:58:54;98087.69;;;-0.80;100.00
22283;BME280;11310;51.528;21.204;2024-01-16T01:01:23;98084.34;;;-0.82;99.95
22283;BME280;11310;51.528;21.204;2024-01-16T01:03:51;98086.09;;;-0.84;99.62
22283;BME280;11310;51.528;21.204;2024-01-16T01:06:22;98086.19;;;-0.87;96.72
22283;BME280;11310;51.528;21.204;2024-01-16T01:08:51;98093.13;;;-0.89;99.08
22283;BME280;11310;51.528;21.204;2024-01-16T01:11:23;98100.91;;;-0.91;99.32
22283;BME280;11310;51.528;21.204;2024-01-16T01:13:51;98102.56;;;-0.90;99.02
22283;BME280;11310;51.528;21.204;2024-01-16T01:16:20;98097.50;;;-0.91;98.03
22283;BME280;11310;51.528;21.204;2024-01-16T01:18:48;98105.16;;;-0.90;99.22
22283;BME280;11310;51.528;21.204;2024-01-16T01:21:16;98110.28;;;-0.90;97.00
22283;BME280;11310;51.528;21.204;2024-01-16T01:23:45;98119.66;;;-0.87;98.38
22283;BME280;11310;51.528;21.204;2024-01-16T01:26:14;98115.50;;;-0.91;98.64
22283;BME280;11310;51.528;21.204;2024-01-16T01:28:46;98119.03;;;-0.94;98.57
22283;BME280;11310;51.528;21.204;2024-01-16T01:31:15;98120.81;;;-0.97;97.12
22283;BME280;11310;51.528;21.204;2024-01-16T01:33:43;98121.69;;;-0.97;96.11
22283;BME280;11310;51.528;21.204;2024-01-16T01:36:11;98128.59;;;-0.99;96.67
22283;BME280;11310;51.528;21.204;2024-01-16T01:38:40;98128.69;;;-1.02;97.58
22283;BME280;11310;51.528;21.204;2024-01-16T01:41:11;98133.84;;;-1.02;97.15
22283;BME280;11310;51.528;21.204;2024-01-16T01:43:43;98133.97;;;-1.06;95.39
22283;BME280;11310;51.528;21.204;2024-01-16T01:46:14;98139.06;;;-1.05;95.62
22283;BME280;11310;51.528;21.204;2024-01-16T01:48:48;98151.97;;;-1.06;97.04
22283;BME280;11310;51.528;21.204;2024-01-16T01:51:21;98150.28;;;-1.07;97.52
22283;BME280;11310;51.528;21.204;2024-01-16T01:53:50;98157.22;;;-1.09;95.68
22283;BME280;11310;51.528;21.204;2024-01-16T01:56:20;98157.22;;;-1.09;95.11
22283;BME280;11310;51.528;21.204;2024-01-16T01:58:53;98166.66;;;-1.10;93.59
22283;BME280;11310;51.528;21.204;2024-01-16T02:01:29;98168.44;;;-1.12;96.47
22283;BME280;11310;51.528;21.204;2024-01-16T02:04:01;98174.38;;;-1.10;97.08
22283;BME280;11310;51.528;21.204;2024-01-16T02:06:29;98191.53;;;-1.10;97.77
22283;BME280;11310;51.528;21.204;2024-01-16T02:08:58;98190.78;;;-1.14;97.28
22283;BME280;11310;51.528;21.204;2024-01-16T02:11:26;98193.34;;;-1.14;97.30
22283;BME280;11310;51.528;21.204;2024-01-16T02:13:55;98204.38;;;-1.10;97.22
22283;BME280;11310;51.528;21.204;2024-01-16T02:16:24;98197.53;;;-1.10;98.29
22283;BME280;11310;51.528;21.204;2024-01-16T02:18:57;98201.00;;;-1.11;96.87
22283;BME280;11310;51.528;21.204;2024-01-16T02:21:27;98211.31;;;-1.12;97.84
22283;BME280;11310;51.528;21.204;2024-01-16T02:24:01;98210.56;;;-1.16;97.47
22283;BME280;11310;51.528;21.204;2024-01-16T02:26:29;98216.63;;;-1.17;97.78
22283;BME280;11310;51.528;21.204;2024-01-16T02:28:57;98220.03;;;-1.18;96.99
22283;BME280;11310;51.528;21.204;2024-01-16T02:31:29;98220.03;;;-1.18;97.62
22283;BME280;11310;51.528;21.204;2024-01-16T02:33:57;98231.22;;;-1.19;96.04
22283;BME280;11310;51.528;21.204;2024-01-16T02:36:26;98237.25;;;-1.20;96.95
22283;BME280;11310;51.528;21.204;2024-01-16T02:38:54;98251.00;;;-1.21;95.71
22283;BME280;11310;51.528;21.204;2024-01-16T02:41:24;98245.94;;;-1.24;95.29
22283;BME280;11310;51.528;21.204;2024-01-16T02:43:55;98248.53;;;-1.24;95.93
22283;BME280;11310;51.528;21.204;2024-01-16T02:46:23;98255.44;;;-1.26;93.71
22283;BME280;11310;51.528;21.204;2024-01-16T02:48:51;98252.03;;;-1.26;95.32
22283;BME280;11310;51.528;21.204;2024-01-16T02:51:19;98251.16;;;-1.27;96.13
22283;BME280;11310;51.528;21.204;2024-01-16T02:53:48;98258.00;;;-1.26;95.60
22283;BME280;11310;51.528;21.204;2024-01-16T02:56:16;98257.22;;;-1.29;95.27
22283;BME280;11310;51.528;21.204;2024-01-16T02:58:46;98262.41;;;-1.31;94.07
22283;BME280;11310;51.528;21.204;2024-01-16T03:01:14;98264.91;;;-1.28;96.40
22283;BME280;11310;51.528;21.204;2024-01-16T03:03:44;98267.56;;;-1.31;95.43
22283;BME280;11310;51.528;21.204;2024-01-16T03:06:21;98266.72;;;-1.31;95.46
22283;BME280;11310;51.528;21.204;2024-01-16T03:08:50;98277.09;;;-1.34;94.34
22283;BME280;11310;51.528;21.204;2024-01-16T03:11:20;98271.97;;;-1.36;95.12
22283;BME280;11310;51.528;21.204;2024-01-16T03:13:50;98278.88;;;-1.36;95.28
22283;BME280;11310;51.528;21.204;2024-01-16T03:16:19;98287.50;;;-1.39;93.96
22283;BME280;11310;51.528;21.204;2024-01-16T03:18:47;98290.94;;;-1.40;95.05
22283;BME280;11310;51.528;21.204;2024-01-16T03:21:16;98290.13;;;-1.40;96.53
22283;BME280;11310;51.528;21.204;2024-01-16T03:23:44;98293.50;;;-1.40;97.71
22283;BME280;11310;51.528;21.204;2024-01-16T03:26:15;98295.31;;;-1.43;96.90
22283;BME280;11310;51.528;21.204;2024-01-16T03:28:44;98300.50;;;-1.45;98.08
22283;BME280;11310;51.528;21.204;2024-01-16T03:31:14;98303.06;;;-1.45;98.64
22283;BME280;11310;51.528;21.204;2024-01-16T03:33:46;98298.78;;;-1.44;98.39
22283;BME280;11310;51.528;21.204;2024-01-16T03:36:15;98325.34;;;-1.44;98.01
22283;BME280;11310;51.528;21.204;2024-01-16T03:38:43;98314.25;;;-1.46;98.14
22283;BME280;11310;51.528;21.204;2024-01-16T03:41:14;98316.06;;;-1.49;98.38
22283;BME280;11310;51.528;21.204;2024-01-16T03:43:44;98316.94;;;-1.50;97.76
22283;BME280;11310;51.528;21.204;2024-01-16T03:46:14;98327.19;;;-1.49;98.80
22283;BME280;11310;51.528;21.204;2024-01-16T03:48:42;98329.81;;;-1.50;98.42
22283;BME280;11310;51.528;21.204;2024-01-16T03:51:13;98329.81;;;-1.50;98.88
22283;BME280;11310;51.528;21.204;2024-01-16T03:53:44;98333.31;;;-1.53;99.36
22283;BME280;11310;51.528;21.204;2024-01-16T03:56:12;98337.63;;;-1.55;98.88
22283;BME280;11310;51.528;21.204;2024-01-16T03:58:40;98345.31;;;-1.55;98.98
22283;BME280;11310;51.528;21.204;2024-01-16T04:01:10;98336.84;;;-1.58;99.83
22283;BME280;11310;51.528;21.204;2024-01-16T04:03:42;98346.38;;;-1.62;99.59
22283;BME280;11310;51.528;21.204;2024-01-16T04:06:15;98349.03;;;-1.66;97.05
22283;BME280;11310;51.528;21.204;2024-01-16T04:08:44;98355.09;;;-1.69;100.00
22283;BME280;11310;51.528;21.204;2024-01-16T04:11:12;98370.53;;;-1.69;100.00
22283;BME280;11310;51.528;21.204;2024-01-16T04:13:41;98368.78;;;-1.67;100.00
22283;BME280;11310;51.528;21.204;2024-01-16T04:16:11;98372.22;;;-1.68;100.00
22283;BME280;11310;51.528;21.204;2024-01-16T04:18:44;98372.22;;;-1.68;100.00
22283;BME280;11310;51.528;21.204;2024-01-16T04:21:12;98380.81;;;-1.69;100.00
22283;BME280;11310;51.528;21.204;2024-01-16T04:23:44;98379.09;;;-1.68;100.00
22283;BME280;11310;51.528;21.204;2024-01-16T04:26:12;98385.94;;;-1.69;100.00
22283;BME280;11310;51.528;21.204;2024-01-16T04:28:41;98389.41;;;-1.70;100.00
22283;BME280;11310;51.528;21.204;2024-01-16T04:31:10;98386.09;;;-1.75;100.00
22283;BME280;11310;51.528;21.204;2024-01-16T04:33:40;98389.63;;;-1.79;100.00
22283;BME280;11310;51.528;21.204;2024-01-16T04:36:11;98395.72;;;-1.84;100.00
22283;BME280;11310;51.528;21.204;2024-01-16T04:38:39;98394.19;;;-1.91;100.00
22283;BME280;11310;51.528;21.204;2024-01-16T04:41:08;98410.53;;;-1.94;100.00
22283;BME280;11310;51.528;21.204;2024-01-16T04:43:39;98402.09;;;-1.99;100.00
22283;BME280;11310;51.528;21.204;2024-01-16T04:46:07;98408.97;;;-2.01;100.00
22283;BME280;11310;51.528;21.204;2024-01-16T04:48:36;98406.41;;;-2.02;100.00
22283;BME280;11310;51.528;21.204;2024-01-16T04:51:06;98404.75;;;-2.03;100.00
22283;BME280;11310;51.528;21.204;2024-01-16T04:53:37;98399.66;;;-2.06;100.00
22283;BME280;11310;51.528;21.204;2024-01-16T04:56:05;98399.72;;;-2.08;100.00
22283;BME280;11310;51.528;21.204;2024-01-16T04:58:33;98404.97;;;-2.14;100.00
22283;BME280;11310;51.528;21.204;2024-01-16T05:01:03;98416.19;;;-2.18;100.00
22283;BME280;11310;51.528;21.204;2024-01-16T05:03:31;98421.44;;;-2.24;100.00
22283;BME280;11310;51.528;21.204;2024-01-16T05:05:59;98420.75;;;-2.30;100.00
22283;BME280;11310;51.528;21.204;2024-01-16T05:08:28;98416.56;;;-2.36;99.85
22283;BME280;11310;51.528;21.204;2024-01-16T05:10:58;98413.25;;;-2.41;98.84
22283;BME280;11310;51.528;21.204;2024-01-16T05:13:27;98421.91;;;-2.45;98.71
22283;BME280;11310;51.528;21.204;2024-01-16T05:15:56;98432.28;;;-2.51;99.76
22283;BME280;11310;51.528;21.204;2024-01-16T05:18:24;98443.47;;;-2.55;99.32
22283;BME280;11310;51.528;21.204;2024-01-16T05:20:53;98438.47;;;-2.59;100.00
22283;BME280;11310;51.528;21.204;2024-01-16T05:23:25;98436.78;;;-2.62;100.00
22283;BME280;11310;51.528;21.204;2024-01-16T05:25:55;98441.94;;;-2.62;99.27
22283;BME280;11310;51.528;21.204;2024-01-16T05:28:25;98456.44;;;-2.61;100.00
22283;BME280;11310;51.528;21.204;2024-01-16T05:30:55;98463.34;;;-2.63;98.41
22283;BME280;11310;51.528;21.204;2024-01-16T05:33:27;98460.69;;;-2.60;100.00
22283;BME280;11310;51.528;21.204;2024-01-16T05:35:56;98474.44;;;-2.62;96.39
22283;BME280;11310;51.528;21.204;2024-01-16T05:38:27;98484.69;;;-2.62;99.48
22283;BME280;11310;51.528;21.204;2024-01-16T05:40:55;98483.81;;;-2.61;99.49
22283;BME280;11310;51.528;21.204;2024-01-16T05:43:25;98483.81;;;-2.61;98.60
22283;BME280;11310;51.528;21.204;2024-01-16T05:45:57;98490.69;;;-2.62;99.73
22283;BME280;11310;51.528;21.204;2024-01-16T05:48:26;98484.72;;;-2.64;98.83
22283;BME280;11310;51.528;21.204;2024-01-16T05:50:56;98489.06;;;-2.67;99.20
22283;BME280;11310;51.528;21.204;2024-01-16T05:53:27;98490.81;;;-2.69;98.36
22283;BME280;11310;51.528;21.204;2024-01-16T05:55:55;98499.34;;;-2.69;99.30
22283;BME280;11310;51.528;21.204;2024-01-16T05:58:25;98505.41;;;-2.73;99.26
22283;BME280;11310;51.528;21.204;2024-01-16T06:00:53;98507.16;;;-2.73;99.89
22283;BME280;11310;51.528;21.204;2024-01-16T06:03:22;98509.72;;;-2.73;99.74
22283;BME280;11310;51.528;21.204;2024-01-16T06:05:51;98523.41;;;-2.74;99.88
22283;BME280;11310;51.528;21.204;2024-01-16T06:08:22;98537.97;;;-2.76;99.26
22283;BME280;11310;51.528;21.204;2024-01-16T06:10:51;98540.56;;;-2.78;99.58
22283;BME280;11310;51.528;21.204;2024-01-16T06:13:20;98543.13;;;-2.78;99.64
22283;BME280;11310;51.528;21.204;2024-01-16T06:15:54;98542.28;;;-2.78;98.83
22283;BME280;11310;51.528;21.204;2024-01-16T06:18:22;98554.31;;;-2.82;99.13
22283;BME280;11310;51.528;21.204;2024-01-16T06:20:51;98555.28;;;-2.89;99.04
22283;BME280;11310;51.528;21.204;2024-01-16T06:23:19;98569.81;;;-2.88;99.14
22283;BME280;11310;51.528;21.204;2024-01-16T06:25:48;98573.25;;;-2.90;99.44
22283;BME280;11310;51.528;21.204;2024-01-16T06:28:19;98574.97;;;-2.91;99.53
22283;BME280;11310;51.528;21.204;2024-01-16T06:30:48;98570.69;;;-2.89;99.52
22283;BME280;11310;51.528;21.204;2024-01-16T06:33:19;98579.19;;;-2.87;100.00
22283;BME280;11310;51.528;21.204;2024-01-16T06:35:50;98573.25;;;-2.89;100.00
22283;BME280;11310;51.528;21.204;2024-01-16T06:38:20;98564.69;;;-2.88;99.42
22283;BME280;11310;51.528;21.204;2024-01-16T06:40:50;98579.19;;;-2.87;99.85
22283;BME280;11310;51.528;21.204;2024-01-16T06:43:20;98574.94;;;-2.88;99.43
22283;BME280;11310;51.528;21.204;2024-01-16T06:45:48;98586.94;;;-2.90;98.72
22283;BME280;11310;51.528;21.204;2024-01-16T06:48:16;98590.41;;;-2.92;99.46
22283;BME280;11310;51.528;21.204;2024-01-16T06:50:46;98605.72;;;-2.88;98.72
22283;BME280;11310;51.528;21.204;2024-01-16T06:53:15;98609.13;;;-2.86;99.56
22283;BME280;11310;51.528;21.204;2024-01-16T06:55:43;98621.84;;;-2.81;99.92
22283;BME280;11310;51.528;21.204;2024-01-16T06:58:13;98620.06;;;-2.78;98.20
22283;BME280;11310;51.528;21.204;2024-01-16T07:00:42;98619.19;;;-2.75;98.23
22283;BME280;11310;51.528;21.204;2024-01-16T07:03:11;98614.91;;;-2.75;97.72
22283;BME280;11310;51.528;21.204;2024-01-16T07:05:40;98618.28;;;-2.73;96.92
22283;BME280;11310;51.528;21.204;2024-01-16T07:08:13;98629.31;;;-2.68;96.99
22283;BME280;11310;51.528;21.204;2024-01-16T07:10:42;98636.16;;;-2.67;97.60
22283;BME280;11310;51.528;21.204;2024-01-16T07:13:12;98641.31;;;-2.68;98.71
22283;BME280;11310;51.528;21.204;2024-01-16T07:15:43;98645.53;;;-2.64;97.89
22283;BME280;11310;51.528;21.204;2024-01-16T07:18:13;98652.31;;;-2.60;97.65
22283;BME280;11310;51.528;21.204;2024-01-16T07:20:42;98654.78;;;-2.56;98.08
22283;BME280;11310;51.528;21.204;2024-01-16T07:23:12;98662.44;;;-2.51;96.99
22283;BME280;11310;51.528;21.204;2024-01-16T07:25:41;98665.81;;;-2.51;96.43
22283;BME280;11310;51.528;21.204;2024-01-16T07:28:16;98673.53;;;-2.51;96.04
22283;BME280;11310;51.528;21.204;2024-01-16T07:30:46;98666.66;;;-2.49;97.01
22283;BME280;11310;51.528;21.204;2024-01-16T07:33:15;98676.94;;;-2.49;97.01
22283;BME280;11310;51.528;21.204;2024-01-16T07:35:44;98688.03;;;-2.48;97.70
22283;BME280;11310;51.528;21.204;2024-01-16T07:38:17;98683.91;;;-2.57;94.83
22283;BME280;11310;51.528;21.204;2024-01-16T07:40:46;98684.78;;;-2.59;96.93
22283;BME280;11310;51.528;21.204;2024-01-16T07:43:14;98690.72;;;-2.56;98.07
22283;BME280;11310;51.528;21.204;2024-01-16T07:45:46;98683.03;;;-2.57;98.47
22283;BME280;11310;51.528;21.204;2024-01-16T07:48:16;98690.75;;;-2.59;98.00
22283;BME280;11310;51.528;21.204;2024-01-16T07:50:47;98689.06;;;-2.60;98.38
22283;BME280;11310;51.528;21.204;2024-01-16T07:53:21;98700.97;;;-2.56;98.88
22283;BME280;11310;51.528;21.204;2024-01-16T07:55:51;98702.59;;;-2.49;98.67
22283;BME280;11310;51.528;21.204;2024-01-16T07:58:21;98697.47;;;-2.49;97.16
22283;BME280;11310;51.528;21.204;2024-01-16T08:00:50;98702.53;;;-2.47;98.01
22283;BME280;11310;51.528;21.204;2024-01-16T08:03:18;98701.69;;;-2.45;97.90
22283;BME280;11310;51.528;21.204;2024-01-16T08:05:47;98698.16;;;-2.41;98.34
22283;BME280;11310;51.528;21.204;2024-01-16T08:08:15;98701.56;;;-2.39;98.83
22283;BME280;11310;51.528;21.204;2024-01-16T08:10:45;98703.22;;;-2.35;97.66
22283;BME280;11310;51.528;21.204;2024-01-16T08:13:19;98711.69;;;-2.30;98.04
22283;BME280;11310;51.528;21.204;2024-01-16T08:15:48;98709.94;;;-2.28;97.19
22283;BME280;11310;51.528;21.204;2024-01-16T08:18:19;98730.41;;;-2.22;96.85
22283;BME280;11310;51.528;21.204;2024-01-16T08:20:47;98739.00;;;-2.24;95.50
22283;BME280;11310;51.528;21.204;2024-01-16T08:23:18;98737.34;;;-2.28;95.08
22283;BME280;11310;51.528;21.204;2024-01-16T08:25:53;98744.19;;;-2.27;96.35
22283;BME280;11310;51.528;21.204;2024-01-16T08:28:21;98743.25;;;-2.22;96.92
22283;BME280;11310;51.528;21.204;2024-01-16T08:30:51;98741.56;;;-2.24;95.08
22283;BME280;11310;51.528;21.204;2024-01-16T08:33:19;98750.00;;;-2.18;96.06
22283;BME280;11310;51.528;21.204;2024-01-16T08:36:03;98763.72;;;-2.19;96.78
22283;BME280;11310;51.528;21.204;2024-01-16T08:38:34;98767.19;;;-2.23;96.37
22283;BME280;11310;51.528;21.204;2024-01-16T08:41:04;98771.44;;;-2.20;97.13
22283;BME280;11310;51.528;21.204;2024-01-16T08:43:33;98786.84;;;-2.20;96.79
22283;BME280;11310;51.528;21.204;2024-01-16T08:46:02;98773.19;;;-2.22;96.15
22283;BME280;11310;51.528;21.204;2024-01-16T08:48:31;98785.16;;;-2.21;96.89
22283;BME280;11310;51.528;21.204;2024-01-16T08:51:07;98792.84;;;-2.20;95.96
22283;BME280;11310;51.528;21.204;2024-01-16T08:53:36;98784.31;;;-2.22;96.01
22283;BME280;11310;51.528;21.204;2024-01-16T08:56:07;98782.66;;;-2.24;96.37
22283;BME280;11310;51.528;21.204;2024-01-16T08:58:36;98784.47;;;-2.31;95.37
22283;BME280;11310;51.528;21.204;2024-01-16T09:01:10;98800.84;;;-2.41;95.09
22283;BME280;11310;51.528;21.204;2024-01-16T09:03:38;98802.75;;;-2.55;96.61
22283;BME280;11310;51.528;21.204;2024-01-16T09:06:06;98800.31;;;-2.64;97.09
22283;BME280;11310;51.528;21.204;2024-01-16T09:08:36;98809.78;;;-2.69;96.86
22283;BME280;11310;51.528;21.204;2024-01-16T09:11:09;98815.81;;;-2.71;95.80
22283;BME280;11310;51.528;21.204;2024-01-16T09:13:41;98812.44;;;-2.72;96.86
22283;BME280;11310;51.528;21.204;2024-01-16T09:16:10;98819.25;;;-2.71;97.71
22283;BME280;11310;51.528;21.204;2024-01-16T09:18:39;98823.50;;;-2.70;96.38
22283;BME280;11310;51.528;21.204;2024-01-16T09:21:08;98819.34;;;-2.77;96.19
22283;BME280;11310;51.528;21.204;2024-01-16T09:23:39;98827.03;;;-2.77;96.29
22283;BME280;11310;51.528;21.204;2024-01-16T09:26:09;98824.50;;;-2.80;96.87
22283;BME280;11310;51.528;21.204;2024-01-16T09:28:41;98831.28;;;-2.76;97.52
22283;BME280;11310;51.528;21.204;2024-01-16T09:31:14;98832.13;;;-2.75;97.85
22283;BME280;11310;51.528;21.204;2024-01-16T09:33:42;98826.16;;;-2.77;96.74
22283;BME280;11310;51.528;21.204;2024-01-16T09:36:11;98832.19;;;-2.78;96.82
22283;BME280;11310;51.528;21.204;2024-01-16T09:38:40;98835.53;;;-2.75;97.09
22283;BME280;11310;51.528;21.204;2024-01-16T09:41:10;98829.53;;;-2.74;97.24
22283;BME280;11310;51.528;21.204;2024-01-16T09:43:40;98832.88;;;-2.69;98.22
22283;BME280;11310;51.528;21.204;2024-01-16T09:46:11;98830.31;;;-2.67;97.28
22283;BME280;11310;51.528;21.204;2024-01-16T09:48:40;98833.69;;;-2.64;93.73
22283;BME280;11310;51.528;21.204;2024-01-16T09:51:09;98837.91;;;-2.60;96.23
22283;BME280;11310;51.528;21.204;2024-01-16T09:53:41;98843.03;;;-2.60;95.32
22283;BME280;11310;51.528;21.204;2024-01-16T09:56:14;98853.25;;;-2.54;96.00
22283;BME280;11310;51.528;21.204;2024-01-16T09:58:43;98851.50;;;-2.52;96.34
22283;BME280;11310;51.528;21.204;2024-01-16T10:01:15;98861.72;;;-2.49;93.42
22283;BME280;11310;51.528;21.204;2024-01-16T10:03:45;98863.41;;;-2.46;93.62
22283;BME280;11310;51.528;21.204;2024-01-16T10:06:15;98865.09;;;-2.44;95.19
22283;BME280;11310;51.528;21.204;2024-01-16T10:08:44;98862.47;;;-2.41;96.09
22283;BME280;11310;51.528;21.204;2024-01-16T10:11:15;98872.59;;;-2.32;93.82
22283;BME280;11310;51.528;21.204;2024-01-16T10:13:44;98876.00;;;-2.30;93.14
22283;BME280;11310;51.528;21.204;2024-01-16T10:16:13;98882.03;;;-2.31;94.39
22283;BME280;11310;51.528;21.204;2024-01-16T10:18:44;98876.81;;;-2.26;94.70
22283;BME280;11310;51.528;21.204;2024-01-16T10:21:20;98886.19;;;-2.22;93.95
22283;BME280;11310;51.528;21.204;2024-01-16T10:23:49;98882.78;;;-2.24;91.86
22283;BME280;11310;51.528;21.204;2024-01-16T10:26:21;98898.09;;;-2.17;91.05
22283;BME280;11310;51.528;21.204;2024-01-16T10:29:03;98896.47;;;-2.24;92.56
22283;BME280;11310;51.528;21.204;2024-01-16T10:31:35;98901.56;;;-2.19;93.91
22283;BME280;11310;51.528;21.204;2024-01-16T10:34:19;98911.66;;;-2.09;93.50
22283;BME280;11310;51.528;21.204;2024-01-16T10:36:50;98912.50;;;-2.05;91.94
22283;BME280;11310;51.528;21.204;2024-01-16T10:39:20;98906.50;;;-2.09;91.94
22283;BME280;11310;51.528;21.204;2024-01-16T10:42:02;98905.72;;;-2.12;92.67
22283;BME280;11310;51.528;21.204;2024-01-16T10:44:34;98908.31;;;-2.14;93.84
22283;BME280;11310;51.528;21.204;2024-01-16T10:47:11;98916.78;;;-2.07;93.34
22283;BME280;11310;51.528;21.204;2024-01-16T10:49:42;98909.03;;;-2.03;93.08
22283;BME280;11310;51.528;21.204;2024-01-16T10:52:12;98906.50;;;-2.06;92.93
22283;BME280;11310;51.528;21.204;2024-01-16T10:54:43;98919.88;;;-1.86;93.52
22283;BME280;11310;51.528;21.204;2024-01-16T10:57:19;98916.09;;;-1.62;91.76
22283;BME280;11310;51.528;21.204;2024-01-16T10:59:56;98919.28;;;-1.47;92.01
22283;BME280;11310;51.528;21.204;2024-01-16T11:02:33;98913.97;;;-1.35;90.45
22283;BME280;11310;51.528;21.204;2024-01-16T11:05:04;98921.41;;;-1.20;90.61
22283;BME280;11310;51.528;21.204;2024-01-16T11:07:35;98917.19;;;-1.25;88.60
22283;BME280;11310;51.528;21.204;2024-01-16T11:10:06;98925.69;;;-1.20;87.61
22283;BME280;11310;51.528;21.204;2024-01-16T11:12:38;98927.47;;;-1.24;88.35
22283;BME280;11310;51.528;21.204;2024-01-16T11:15:10;98930.38;;;-1.45;88.20
22283;BME280;11310;51.528;21.204;2024-01-16T11:17:40;98929.81;;;-1.62;89.69
22283;BME280;11310;51.528;21.204;2024-01-16T11:20:12;98931.75;;;-1.76;90.04
22283;BME280;11310;51.528;21.204;2024-01-16T11:23:03;98930.16;;;-1.86;91.16
22283;BME280;11310;51.528;21.204;2024-01-16T11:25:32;98937.84;;;-1.83;91.34
22283;BME280;11310;51.528;21.204;2024-01-16T11:28:10;98939.50;;;-1.79;92.34
22283;BME280;11310;51.528;21.204;2024-01-16T11:30:39;98939.41;;;-1.73;91.72
22283;BME280;11310;51.528;21.204;2024-01-16T11:33:42;98929.88;;;-1.68;91.32
22283;BME280;11310;51.528;21.204;2024-01-16T11:36:48;98942.09;;;-1.26;89.63
22283;BME280;11310;51.528;21.204;2024-01-16T11:39:24;98950.78;;;-1.33;90.58
22283;BME280;11310;51.528;21.204;2024-01-16T11:41:54;98957.69;;;-1.35;90.33
22283;BME280;11310;51.528;21.204;2024-01-16T11:44:39;98972.38;;;-1.43;83.35
22283;BME280;11310;51.528;21.204;2024-01-16T11:47:14;98987.81;;;-1.46;86.75
22283;BME280;11310;51.528;21.204;2024-01-16T11:49:47;98988.59;;;-1.41;86.14
22283;BME280;11310;51.528;21.204;2024-01-16T11:52:39;98978.81;;;-1.18;84.73
22283;BME280;11310;51.528;21.204;2024-01-16T11:55:25;98986.44;;;-1.12;84.25
22283;BME280;11310;51.528;21.204;2024-01-16T11:58:13;98991.00;;;-1.29;84.30
22283;BME280;11310;51.528;21.204;2024-01-16T12:00:51;98989.59;;;-1.49;86.83
22283;BME280;11310;51.528;21.204;2024-01-16T12:03:24;98982.91;;;-1.61;88.69
22283;BME280;11310;51.528;21.204;2024-01-16T12:06:02;98982.06;;;-1.63;88.08
22283;BME280;11310;51.528;21.204;2024-01-16T12:08:34;98990.69;;;-1.65;88.80
22283;BME280;11310;51.528;21.204;2024-01-16T12:11:04;98985.63;;;-1.70;89.10
22283;BME280;11310;51.528;21.204;2024-01-16T12:13:32;98991.63;;;-1.69;89.03
22283;BME280;11310;51.528;21.204;2024-01-16T12:16:05;98977.16;;;-1.78;89.67
22283;BME280;11310;51.528;21.204;2024-01-16T12:18:34;98982.28;;;-1.76;88.85
22283;BME280;11310;51.528;21.204;2024-01-16T12:21:11;98983.19;;;-1.80;89.66
22283;BME280;11310;51.528;21.204;2024-01-16T12:23:43;98989.31;;;-1.89;90.08
22283;BME280;11310;51.528;21.204;2024-01-16T12:26:26;98988.59;;;-2.00;90.48
22283;BME280;11310;51.528;21.204;2024-01-16T12:28:58;98986.13;;;-2.06;91.30
22283;BME280;11310;51.528;21.204;2024-01-16T12:31:28;98987.09;;;-2.14;91.19
22283;BME280;11310;51.528;21.204;2024-01-16T12:34:07;98988.09;;;-2.26;90.53
22283;BME280;11310;51.528;21.204;2024-01-16T12:36:39;98992.38;;;-2.29;92.32
22283;BME280;11310;51.528;21.204;2024-01-16T12:39:08;99000.06;;;-2.28;89.98
22283;BME280;11310;51.528;21.204;2024-01-16T12:41:43;99004.34;;;-2.27;91.86
22283;BME280;11310;51.528;21.204;2024-01-16T12:44:14;99012.88;;;-2.25;90.98
22283;BME280;11310;51.528;21.204;2024-01-16T12:46:53;99013.72;;;-2.23;89.72
22283;BME280;11310;51.528;21.204;2024-01-16T12:49:23;99010.25;;;-2.19;90.56
22283;BME280;11310;51.528;21.204;2024-01-16T12:52:18;99013.69;;;-2.20;88.42
22283;BME280;11310;51.528;21.204;2024-01-16T12:54:58;99006.88;;;-2.24;87.06
22283;BME280;11310;51.528;21.204;2024-01-16T12:57:28;99015.47;;;-2.28;88.64
22283;BME280;11310;51.528;21.204;2024-01-16T12:59:57;99016.38;;;-2.32;89.87
22283;BME280;11310;51.528;21.204;2024-01-16T13:02:30;99018.13;;;-2.35;90.34
22283;BME280;11310;51.528;21.204;2024-01-16T13:05:05;99010.50;;;-2.40;90.48
22283;BME280;11310;51.528;21.204;2024-01-16T13:07:43;99026.69;;;-2.33;90.24